createdAt,value
2022-12-22T00:02:39.745Z,3.47
2022-12-22T00:05:47.039Z,3.47
2022-12-22T00:08:34.319Z,3.48
2022-12-22T00:11:21.235Z,3.48
2022-12-22T00:14:13.382Z,3.49
2022-12-22T00:17:06.038Z,3.48
2022-12-22T00:19:53.173Z,3.46
2022-12-22T00:22:46.014Z,3.43
2022-12-22T00:25:36.499Z,3.39
2022-12-22T00:28:38.189Z,3.35
2022-12-22T00:31:25.262Z,3.31
2022-12-22T00:34:12.852Z,3.29
2022-12-22T00:36:59.866Z,3.27
2022-12-22T00:39:46.984Z,3.27
2022-12-22T00:42:33.931Z,3.26
2022-12-22T00:45:21.272Z,3.27
2022-12-22T00:48:08.176Z,3.27
2022-12-22T00:50:55.505Z,3.26
2022-12-22T00:53:43.288Z,3.26
2022-12-22T00:56:30.325Z,3.24
2022-12-22T00:59:20.001Z,3.25
2022-12-22T01:02:07.582Z,3.24
2022-12-22T01:04:54.861Z,3.24
2022-12-22T01:07:45.477Z,3.23
2022-12-22T01:10:33.848Z,3.21
2022-12-22T01:13:20.806Z,3.17
2022-12-22T01:16:07.694Z,3.13
2022-12-22T01:18:54.931Z,3.08
2022-12-22T01:21:41.803Z,3.02
2022-12-22T01:24:36.752Z,2.98
2022-12-22T01:27:24.143Z,2.94
2022-12-22T01:30:11.033Z,2.91
2022-12-22T01:32:59.085Z,2.90
2022-12-22T01:35:52.013Z,2.88
2022-12-22T01:38:39.055Z,2.86
2022-12-22T01:41:32.252Z,2.85
2022-12-22T01:44:35.699Z,2.84
2022-12-22T01:47:49.829Z,2.82
2022-12-22T01:50:55.371Z,2.81
2022-12-22T01:53:46.394Z,2.79
2022-12-22T01:56:36.567Z,2.77
2022-12-22T01:59:24.892Z,2.77
2022-12-22T02:02:12.722Z,2.77
2022-12-22T02:05:08.279Z,2.78
2022-12-22T02:08:10.757Z,2.78
2022-12-22T02:11:06.984Z,2.76
2022-12-22T02:14:29.624Z,2.73
2022-12-22T02:17:23.688Z,2.70
2022-12-22T02:20:34.425Z,2.69
2022-12-22T02:23:48.108Z,2.68
2022-12-22T02:27:04.472Z,2.66
2022-12-22T02:30:21.178Z,2.65
2022-12-22T02:33:10.129Z,2.64
2022-12-22T02:36:10.545Z,2.65
2022-12-22T02:39:30.767Z,2.67
2022-12-22T02:42:35.544Z,2.68
2022-12-22T02:45:54.286Z,2.67
2022-12-22T02:49:05.636Z,2.66
2022-12-22T02:52:00.388Z,2.64
2022-12-22T02:54:52.047Z,2.64
2022-12-22T02:57:41.995Z,2.62
2022-12-22T03:00:34.197Z,2.61
2022-12-22T03:03:21.479Z,2.60
2022-12-22T03:06:09.189Z,2.60
2022-12-22T03:08:56.271Z,2.57
2022-12-22T03:11:43.636Z,2.55
2022-12-22T03:14:31.478Z,2.52
2022-12-22T03:17:20.900Z,2.50
2022-12-22T03:20:08.010Z,2.50
2022-12-22T03:22:54.866Z,2.51
2022-12-22T03:25:41.782Z,2.53
2022-12-22T03:28:10.231Z,2.55
2022-12-22T03:30:39.832Z,2.56
2022-12-22T03:33:07.988Z,2.56
2022-12-22T03:35:36.256Z,2.57
2022-12-22T03:38:04.465Z,2.59
2022-12-22T03:40:33.017Z,2.60
2022-12-22T03:43:20.039Z,2.61
2022-12-22T03:46:06.881Z,2.64
2022-12-22T03:48:34.994Z,2.68
2022-12-22T03:51:03.223Z,2.68
2022-12-22T03:53:31.368Z,2.70
2022-12-22T03:56:05.736Z,2.69
2022-12-22T03:58:36.522Z,2.68
2022-12-22T04:01:08.733Z,2.68
2022-12-22T04:03:37.040Z,2.69
2022-12-22T04:06:05.194Z,2.70
2022-12-22T04:08:33.436Z,2.70
2022-12-22T04:11:21.639Z,2.69
2022-12-22T04:13:49.790Z,2.70
2022-12-22T04:16:18.321Z,2.73
2022-12-22T04:18:46.805Z,2.77
2022-12-22T04:21:15.507Z,2.81
2022-12-22T04:23:43.840Z,2.85
2022-12-22T04:26:12.068Z,2.89
2022-12-22T04:28:40.346Z,2.94
2022-12-22T04:31:09.971Z,2.97
2022-12-22T04:33:38.484Z,3.00
2022-12-22T04:36:07.309Z,3.04
2022-12-22T04:38:38.824Z,3.08
2022-12-22T04:41:09.812Z,3.10
2022-12-22T04:43:40.326Z,3.11
2022-12-22T04:46:08.569Z,3.12
2022-12-22T04:48:37.108Z,3.13
2022-12-22T04:51:06.748Z,3.15
2022-12-22T04:53:35.451Z,3.16
2022-12-22T04:56:06.661Z,3.17
2022-12-22T04:58:36.108Z,3.17
2022-12-22T05:01:13.872Z,3.19
2022-12-22T05:03:42.968Z,3.20
2022-12-22T05:06:14.466Z,3.23
2022-12-22T05:08:42.467Z,3.27
2022-12-22T05:11:10.627Z,3.31
2022-12-22T05:13:39.781Z,3.34
2022-12-22T05:16:11.589Z,3.39
2022-12-22T05:18:41.642Z,3.43
2022-12-22T05:21:12.475Z,3.45
2022-12-22T05:23:41.590Z,3.48
2022-12-22T05:26:12.021Z,3.50
2022-12-22T05:28:41.290Z,3.50
2022-12-22T05:31:20.488Z,3.51
2022-12-22T05:33:49.352Z,3.53
2022-12-22T05:36:17.798Z,3.53
2022-12-22T05:38:46.077Z,3.53
2022-12-22T05:41:14.601Z,3.55
2022-12-22T05:43:42.787Z,3.56
2022-12-22T05:46:12.632Z,3.59
2022-12-22T05:48:43.410Z,3.62
2022-12-22T05:51:11.585Z,3.66
2022-12-22T05:53:39.765Z,3.69
2022-12-22T05:56:11.006Z,3.72
2022-12-22T05:58:42.112Z,3.77
2022-12-22T06:01:10.420Z,3.80
2022-12-22T06:03:41.579Z,3.82
2022-12-22T06:06:09.990Z,3.86
2022-12-22T06:08:40.047Z,3.89
2022-12-22T06:11:08.555Z,3.91
2022-12-22T06:13:37.399Z,3.93
2022-12-22T06:16:05.825Z,3.93
2022-12-22T06:18:34.579Z,3.93
2022-12-22T06:21:02.792Z,3.93
2022-12-22T06:23:31.016Z,3.92
2022-12-22T06:26:02.076Z,3.92
2022-12-22T06:28:31.364Z,3.92
2022-12-22T06:30:59.937Z,3.93
2022-12-22T06:33:28.079Z,3.95
2022-12-22T06:35:58.939Z,3.98
2022-12-22T06:38:30.530Z,4.00
2022-12-22T06:40:58.656Z,4.02
2022-12-22T06:43:26.863Z,4.03
2022-12-22T06:45:57.886Z,4.03
2022-12-22T06:48:26.131Z,4.05
2022-12-22T06:51:00.439Z,4.08
2022-12-22T06:53:29.272Z,4.09
2022-12-22T06:56:00.119Z,4.11
2022-12-22T06:58:32.282Z,4.14
2022-12-22T07:01:01.205Z,4.17
2022-12-22T07:03:33.052Z,4.21
2022-12-22T07:06:01.462Z,4.25
2022-12-22T07:08:30.040Z,4.28
2022-12-22T07:10:58.445Z,4.30
2022-12-22T07:13:33.110Z,4.31
2022-12-22T07:16:07.451Z,4.33
2022-12-22T07:18:40.188Z,4.36
2022-12-22T07:21:13.757Z,4.37
2022-12-22T07:23:42.245Z,4.38
2022-12-22T07:26:12.169Z,4.39
2022-12-22T07:28:41.472Z,4.40
2022-12-22T07:31:11.988Z,4.43
2022-12-22T07:33:40.487Z,4.46
2022-12-22T07:36:13.839Z,4.47
2022-12-22T07:38:44.813Z,4.48
2022-12-22T07:41:36.360Z,4.49
2022-12-22T07:44:05.047Z,4.52
2022-12-22T07:46:36.876Z,4.53
2022-12-22T07:49:26.055Z,4.55
2022-12-22T07:51:57.889Z,4.57
2022-12-22T07:54:28.259Z,4.58
2022-12-22T07:56:56.998Z,4.60
2022-12-22T07:59:25.703Z,4.63
2022-12-22T08:01:54.208Z,4.64
2022-12-22T08:04:22.791Z,4.66
2022-12-22T08:06:51.128Z,4.69
2022-12-22T08:09:21.866Z,4.72
2022-12-22T08:11:50.833Z,4.74
2022-12-22T08:14:19.733Z,4.76
2022-12-22T08:16:48.114Z,4.79
2022-12-22T08:19:16.596Z,4.79
2022-12-22T08:21:52.151Z,4.82
2022-12-22T08:24:22.138Z,4.85
2022-12-22T08:26:55.044Z,4.87
2022-12-22T08:29:28.228Z,4.88
2022-12-22T08:31:57.097Z,4.91
2022-12-22T08:34:25.605Z,4.93
2022-12-22T08:36:58.110Z,4.95
2022-12-22T08:39:30.937Z,4.97
2022-12-22T08:42:01.419Z,4.99
2022-12-22T08:44:30.986Z,5.01
2022-12-22T08:47:00.362Z,5.03
2022-12-22T08:49:28.809Z,5.09
2022-12-22T08:51:59.269Z,5.14
2022-12-22T08:54:30.066Z,5.18
2022-12-22T08:56:58.927Z,5.21
2022-12-22T08:59:27.442Z,5.23
2022-12-22T09:01:56.325Z,5.26
2022-12-22T09:04:26.041Z,5.29
2022-12-22T09:06:54.637Z,5.32
2022-12-22T09:09:23.202Z,5.35
2022-12-22T09:11:51.790Z,5.37
2022-12-22T09:14:22.158Z,5.39
2022-12-22T09:16:51.007Z,5.40
2022-12-22T09:19:19.734Z,5.42
2022-12-22T09:21:48.160Z,5.42
2022-12-22T09:24:17.465Z,5.44
2022-12-22T09:26:46.110Z,5.45
2022-12-22T09:29:15.954Z,5.46
2022-12-22T09:31:45.210Z,5.47
2022-12-22T09:34:18.014Z,5.47
2022-12-22T09:36:47.988Z,5.47
2022-12-22T09:39:19.916Z,5.47
2022-12-22T09:41:54.124Z,5.46
2022-12-22T09:44:28.717Z,5.45
2022-12-22T09:47:00.857Z,5.44
2022-12-22T09:49:30.075Z,5.43
2022-12-22T09:52:04.250Z,5.42
2022-12-22T09:54:32.645Z,5.43
2022-12-22T09:57:06.841Z,5.45
2022-12-22T09:59:36.493Z,5.48
2022-12-22T10:02:19.619Z,5.50
2022-12-22T10:05:21.554Z,5.52
2022-12-22T10:07:50.263Z,5.55
2022-12-22T10:10:29.250Z,5.56
2022-12-22T10:13:02.247Z,5.57
2022-12-22T10:15:41.631Z,5.58
2022-12-22T10:18:18.953Z,5.59
2022-12-22T10:21:14.739Z,5.60
2022-12-22T10:23:48.186Z,5.62
2022-12-22T10:26:34.908Z,5.63
2022-12-22T10:29:10.731Z,5.64
2022-12-22T10:32:02.671Z,5.67
2022-12-22T10:34:31.572Z,5.69
2022-12-22T10:37:03.465Z,5.70
2022-12-22T10:39:36.733Z,5.72
2022-12-22T10:42:14.781Z,5.75
2022-12-22T10:44:49.443Z,5.78
2022-12-22T10:47:21.779Z,5.80
2022-12-22T10:52:30.647Z,5.84
2022-12-22T10:55:26.865Z,5.87
2022-12-22T10:58:15.797Z,5.90
2022-12-22T11:00:45.308Z,5.92
2022-12-22T11:03:18.995Z,5.94
2022-12-22T11:05:51.437Z,5.95
2022-12-22T11:08:25.298Z,5.98
2022-12-22T11:11:01.195Z,6.01
2022-12-22T11:13:48.218Z,6.04
2022-12-22T11:16:32.335Z,6.07
2022-12-22T11:19:39.209Z,6.10
2022-12-22T11:22:15.208Z,6.16
2022-12-22T11:24:55.543Z,6.18
2022-12-22T11:27:29.811Z,6.19
2022-12-22T11:30:14.692Z,6.22
2022-12-22T11:32:49.076Z,6.23
2022-12-22T11:35:38.728Z,6.23
2022-12-22T11:38:33.895Z,6.24
2022-12-22T11:41:30.351Z,6.22
2022-12-22T11:44:36.168Z,6.25
2022-12-22T11:47:11.368Z,6.29
2022-12-22T11:49:46.507Z,6.34
2022-12-22T11:52:30.924Z,6.37
2022-12-22T11:55:09.002Z,6.38
2022-12-22T11:57:49.759Z,6.39
2022-12-22T12:00:19.703Z,6.40
2022-12-22T12:03:15.707Z,6.40
2022-12-22T12:06:26.652Z,6.40
2022-12-22T12:09:38.393Z,6.41
2022-12-22T12:12:13.487Z,6.40
2022-12-22T12:15:00.376Z,6.40
2022-12-22T12:18:05.292Z,6.40
2022-12-22T12:20:43.051Z,6.41
2022-12-22T12:23:50.335Z,6.41
2022-12-22T12:26:28.717Z,6.42
2022-12-22T12:29:15.314Z,6.40
2022-12-22T12:32:09.714Z,6.42
2022-12-22T12:34:43.539Z,6.42
2022-12-22T12:37:28.375Z,6.42
2022-12-22T12:40:04.650Z,6.43
2022-12-22T12:42:37.885Z,6.46
2022-12-22T12:45:34.815Z,6.48
2022-12-22T12:48:22.218Z,6.51
2022-12-22T12:50:58.109Z,6.52
2022-12-22T12:53:29.220Z,6.51
2022-12-22T12:56:01.211Z,6.50
2022-12-22T12:58:39.470Z,6.49
2022-12-22T13:01:12.134Z,6.47
2022-12-22T13:06:51.524Z,6.43
2022-12-22T13:12:40.611Z,6.39
2022-12-22T13:15:28.135Z,6.38
2022-12-22T13:17:57.348Z,6.37
2022-12-22T13:20:28.501Z,6.37
2022-12-22T13:23:00.688Z,6.37
2022-12-22T13:25:46.002Z,6.37
2022-12-22T13:28:19.781Z,6.37
2022-12-22T13:31:01.541Z,6.38
2022-12-22T13:33:38.963Z,6.38
2022-12-22T13:36:15.437Z,6.39
2022-12-22T13:38:45.223Z,6.40
2022-12-22T13:41:24.958Z,6.41
2022-12-22T13:44:06.348Z,6.44
2022-12-22T13:46:37.689Z,6.46
2022-12-22T13:49:09.103Z,6.49
2022-12-22T13:51:39.114Z,6.50
2022-12-22T13:54:37.737Z,6.51
2022-12-22T13:57:16.689Z,6.53
2022-12-22T13:59:46.858Z,6.54
2022-12-22T14:02:19.629Z,6.55
2022-12-22T14:05:09.981Z,6.56
2022-12-22T14:07:38.800Z,6.58
2022-12-22T14:10:07.726Z,6.60
2022-12-22T14:12:46.521Z,6.61
2022-12-22T14:15:20.509Z,6.62
2022-12-22T14:17:52.756Z,6.62
2022-12-22T14:20:43.585Z,6.63
2022-12-22T14:23:32.987Z,6.62
2022-12-22T14:26:07.961Z,6.63
2022-12-22T14:28:50.821Z,6.63
2022-12-22T14:31:20.336Z,6.63
2022-12-22T14:34:05.691Z,6.63
2022-12-22T14:36:41.534Z,6.62
2022-12-22T14:39:21.084Z,6.61
2022-12-22T14:41:53.449Z,6.59
2022-12-22T14:44:27.433Z,6.56
2022-12-22T14:47:17.738Z,6.53
2022-12-22T14:50:18.811Z,6.52
2022-12-22T14:52:53.934Z,6.49
2022-12-22T14:55:29.030Z,6.47
2022-12-22T14:58:06.058Z,6.46
2022-12-22T15:00:40.930Z,6.44
2022-12-22T15:03:25.716Z,6.43
2022-12-22T15:05:55.142Z,6.42
2022-12-22T15:08:38.926Z,6.41
2022-12-22T15:11:13.872Z,6.41
2022-12-22T15:13:44.665Z,6.41
2022-12-22T15:16:17.630Z,6.41
2022-12-22T15:18:46.955Z,6.41
2022-12-22T15:21:17.963Z,6.41
2022-12-22T15:23:47.680Z,6.42
2022-12-22T15:26:21.415Z,6.42
2022-12-22T15:28:50.145Z,6.44
2022-12-22T15:31:20.894Z,6.47
2022-12-22T15:33:51.923Z,6.49
2022-12-22T15:36:22.157Z,6.51
2022-12-22T15:38:51.502Z,6.51
2022-12-22T15:41:19.961Z,6.52
2022-12-22T15:43:58.241Z,6.51
2022-12-22T15:46:31.672Z,6.50
2022-12-22T15:49:03.964Z,6.48
2022-12-22T15:51:39.259Z,6.47
2022-12-22T15:54:15.355Z,6.46
2022-12-22T15:56:55.390Z,6.46
2022-12-22T15:59:27.536Z,6.46
2022-12-22T16:02:01.215Z,6.46
2022-12-22T16:04:32.935Z,6.45
2022-12-22T16:07:06.740Z,6.43
2022-12-22T16:09:41.676Z,6.42
2022-12-22T16:12:16.333Z,6.41
2022-12-22T16:14:51.256Z,6.40
2022-12-22T16:17:25.352Z,6.41
2022-12-22T16:19:54.048Z,6.41
2022-12-22T16:22:32.759Z,6.41
2022-12-22T16:25:04.033Z,6.41
2022-12-22T16:27:32.969Z,6.40
2022-12-22T16:30:03.903Z,6.40
2022-12-22T16:32:32.764Z,6.42
2022-12-22T16:35:15.395Z,6.42
2022-12-22T16:37:45.138Z,6.42
2022-12-22T16:40:13.766Z,6.42
2022-12-22T16:45:38.930Z,6.43
2022-12-22T16:48:15.545Z,6.43
2022-12-22T16:50:48.218Z,6.42
2022-12-22T16:53:17.042Z,6.42
2022-12-22T16:55:45.438Z,6.44
2022-12-22T16:58:14.335Z,6.45
2022-12-22T17:00:45.141Z,6.47
2022-12-22T17:03:23.083Z,6.47
2022-12-22T17:06:01.173Z,6.49
2022-12-22T17:08:36.806Z,6.51
2022-12-22T17:11:20.618Z,6.51
2022-12-22T17:13:53.105Z,6.51
2022-12-22T17:16:23.370Z,6.51
2022-12-22T17:18:55.224Z,6.54
2022-12-22T17:21:24.180Z,6.56
2022-12-22T17:23:55.306Z,6.58
2022-12-22T17:26:25.967Z,6.59
2022-12-22T17:28:54.807Z,6.59
2022-12-22T17:31:23.878Z,6.60
2022-12-22T17:33:53.040Z,6.61
2022-12-22T17:36:32.536Z,6.66
2022-12-22T17:39:02.353Z,6.73
2022-12-22T17:41:31.415Z,6.81
2022-12-22T17:43:59.791Z,6.87
2022-12-22T17:46:28.501Z,6.89
2022-12-22T17:48:56.855Z,6.91
2022-12-22T17:51:28.661Z,6.95
2022-12-22T17:54:00.857Z,6.97
2022-12-22T17:56:30.890Z,6.98
2022-12-22T17:58:59.348Z,6.98
2022-12-22T18:01:31.350Z,6.98
2022-12-22T18:04:00.118Z,7.00
2022-12-22T18:06:38.324Z,7.00
2022-12-22T18:09:10.852Z,6.99
2022-12-22T18:11:45.840Z,6.99
2022-12-22T18:14:16.512Z,6.99
2022-12-22T18:16:45.078Z,6.95
2022-12-22T18:19:15.194Z,6.95
2022-12-22T18:21:44.416Z,6.95
2022-12-22T18:24:17.623Z,6.94
2022-12-22T18:26:47.430Z,6.96
2022-12-22T18:29:18.382Z,6.96
2022-12-22T18:31:47.060Z,6.96
2022-12-22T18:34:18.624Z,6.97
2022-12-22T18:36:48.621Z,6.97
2022-12-22T18:39:20.547Z,6.96
2022-12-22T18:42:17.455Z,6.98
2022-12-22T18:44:50.116Z,6.97
2022-12-22T18:47:19.065Z,6.96
2022-12-22T18:49:50.034Z,6.95
2022-12-22T18:52:24.877Z,6.94
2022-12-22T18:56:21.737Z,6.95
2022-12-22T19:26:43.088Z,6.78
2022-12-22T19:36:27.525Z,6.67
2022-12-22T19:39:03.144Z,6.63
2022-12-22T19:41:54.688Z,6.60
2022-12-22T19:44:29.028Z,6.61
2022-12-22T19:47:01.991Z,6.61
2022-12-22T19:49:30.780Z,6.61
2022-12-22T19:51:59.710Z,6.61
2022-12-22T19:54:29.003Z,6.61
2022-12-22T19:56:58.316Z,6.60
2022-12-22T19:59:41.711Z,6.60
2022-12-22T20:02:23.768Z,6.57
2022-12-22T20:04:53.944Z,6.53
2022-12-22T20:07:24.613Z,6.50
2022-12-22T20:09:54.196Z,6.46
2022-12-22T20:12:31.689Z,6.44
2022-12-22T20:15:02.613Z,6.41
2022-12-22T20:17:31.073Z,6.38
2022-12-22T20:19:59.951Z,6.33
2022-12-22T20:22:29.259Z,6.28
2022-12-22T20:24:58.278Z,6.23
2022-12-22T20:27:33.461Z,6.18
2022-12-22T20:30:02.491Z,6.16
2022-12-22T20:32:31.106Z,6.16
2022-12-22T20:34:59.597Z,6.15
2022-12-22T20:37:29.519Z,6.15
2022-12-22T20:40:03.758Z,6.14
2022-12-22T20:42:32.933Z,6.11
2022-12-22T20:45:04.095Z,6.10
2022-12-22T20:47:34.726Z,6.08
2022-12-22T20:50:05.023Z,6.05
2022-12-22T20:52:33.581Z,6.01
2022-12-22T20:55:02.182Z,5.98
2022-12-22T20:57:31.526Z,5.93
2022-12-22T21:00:00.227Z,5.89
2022-12-22T21:02:30.084Z,5.86
2022-12-22T21:04:59.066Z,5.83
2022-12-22T21:07:27.560Z,5.81
2022-12-22T21:09:59.665Z,5.80
2022-12-22T21:12:28.089Z,5.79
2022-12-22T21:14:56.544Z,5.76
2022-12-22T21:17:24.992Z,5.70
2022-12-22T21:19:56.991Z,5.64
2022-12-22T21:22:25.807Z,5.60
2022-12-22T21:24:54.107Z,5.57
2022-12-22T21:27:26.924Z,5.56
2022-12-22T21:29:55.280Z,5.53
2022-12-22T21:32:23.780Z,5.49
2022-12-22T21:34:52.170Z,5.44
2022-12-22T21:37:21.741Z,5.35
2022-12-22T21:39:50.544Z,5.29
2022-12-22T21:42:20.305Z,5.24
2022-12-22T21:44:48.747Z,5.21
2022-12-22T21:47:20.917Z,5.18
2022-12-22T21:49:50.665Z,5.16
2022-12-22T21:52:19.942Z,5.14
2022-12-22T21:54:51.234Z,5.14
2022-12-22T21:57:19.819Z,5.14
2022-12-22T21:59:48.309Z,5.13
2022-12-22T22:02:20.318Z,5.09
2022-12-22T22:05:00.123Z,5.03
2022-12-22T22:07:36.478Z,5.03
2022-12-22T22:10:05.593Z,5.05
2022-12-22T22:12:38.219Z,5.02
2022-12-22T22:15:09.314Z,5.00
2022-12-22T22:17:41.268Z,4.97
2022-12-22T22:20:15.295Z,4.92
2022-12-22T22:22:45.578Z,4.88
2022-12-22T22:25:16.686Z,4.86
2022-12-22T22:27:47.934Z,4.85
2022-12-22T22:30:27.372Z,4.86
2022-12-22T22:32:56.610Z,4.83
2022-12-22T22:35:27.048Z,4.84
2022-12-22T22:37:57.055Z,4.84
2022-12-22T22:40:25.511Z,4.87
2022-12-22T22:42:54.355Z,4.85
2022-12-22T22:45:25.839Z,4.85
2022-12-22T22:47:54.412Z,4.85
2022-12-22T22:50:23.123Z,4.85
2022-12-22T22:52:51.582Z,4.87
2022-12-22T22:55:20.400Z,4.87
2022-12-22T22:57:49.466Z,4.87
2022-12-22T23:00:19.050Z,4.86
2022-12-22T23:03:01.409Z,4.90
2022-12-22T23:05:31.983Z,4.90
2022-12-22T23:08:00.233Z,4.89
2022-12-22T23:10:28.581Z,4.88
2022-12-22T23:12:59.391Z,4.88
2022-12-22T23:15:27.730Z,4.87
2022-12-22T23:17:56.493Z,4.85
2022-12-22T23:20:25.876Z,4.84
2022-12-22T23:22:54.431Z,4.84
2022-12-22T23:25:22.942Z,4.84
2022-12-22T23:27:53.352Z,4.85
2022-12-22T23:30:21.542Z,4.85
2022-12-22T23:32:49.680Z,4.84
2022-12-22T23:35:21.063Z,4.84
2022-12-22T23:37:49.600Z,4.84
2022-12-22T23:40:50.995Z,4.83
2022-12-22T23:43:12.229Z,4.82
2022-12-22T23:45:41.411Z,4.80
2022-12-22T23:48:10.137Z,4.79
2022-12-22T23:50:38.549Z,4.79
2022-12-22T23:53:06.724Z,4.79
2022-12-22T23:55:37.560Z,4.77
2022-12-22T23:58:05.814Z,4.77
